createdAt,value
2023-05-09T00:00:27.456Z,94868.00
2023-05-09T00:01:27.478Z,94866.00
2023-05-09T00:02:27.577Z,94864.00
2023-05-09T00:03:27.505Z,94866.00
2023-05-09T00:04:27.567Z,94862.00
2023-05-09T00:05:27.505Z,94864.00
2023-05-09T00:06:27.489Z,94862.00
2023-05-09T00:07:27.493Z,94862.00
2023-05-09T00:08:27.493Z,94860.00
2023-05-09T00:09:27.525Z,94860.00
2023-05-09T00:10:27.525Z,94860.00
2023-05-09T00:11:27.541Z,94860.00
2023-05-09T00:12:27.530Z,94860.00
2023-05-09T00:13:27.611Z,94858.00
2023-05-09T00:14:27.596Z,94854.00
2023-05-09T00:15:27.746Z,94856.00
2023-05-09T00:16:27.722Z,94856.00
2023-05-09T00:17:27.774Z,94853.00
2023-05-09T00:18:27.783Z,94854.00
2023-05-09T00:19:27.757Z,94854.00
2023-05-09T00:20:27.756Z,94853.00
2023-05-09T00:21:27.766Z,94851.00
2023-05-09T00:22:27.758Z,94851.00
2023-05-09T00:23:27.753Z,94849.00
2023-05-09T00:24:27.743Z,94849.00
2023-05-09T00:25:27.757Z,94849.00
2023-05-09T00:26:27.805Z,94851.00
2023-05-09T00:27:27.797Z,94849.00
2023-05-09T00:28:27.823Z,94847.00
2023-05-09T00:29:27.822Z,94849.00
2023-05-09T00:30:27.808Z,94847.00
2023-05-09T00:31:27.958Z,94845.00
2023-05-09T00:32:27.815Z,94843.00
2023-05-09T00:33:27.801Z,94845.00
2023-05-09T00:34:27.798Z,94841.00
2023-05-09T00:35:27.815Z,94841.00
2023-05-09T00:36:27.801Z,94841.00
2023-05-09T00:37:27.824Z,94839.00
2023-05-09T00:38:27.806Z,94841.00
2023-05-09T00:39:27.822Z,94843.00
2023-05-09T00:40:27.793Z,94841.00
2023-05-09T00:41:27.836Z,94839.00
2023-05-09T00:42:27.815Z,94843.00
2023-05-09T00:43:27.808Z,94837.00
2023-05-09T00:44:27.843Z,94837.00
2023-05-09T00:45:27.843Z,94837.00
2023-05-09T00:46:27.879Z,94837.00
2023-05-09T00:47:27.931Z,94835.00
2023-05-09T00:48:27.847Z,94835.00
2023-05-09T00:49:27.852Z,94835.00
2023-05-09T00:50:27.843Z,94831.00
2023-05-09T00:51:27.843Z,94831.00
2023-05-09T00:52:27.839Z,94831.00
2023-05-09T00:53:27.843Z,94833.00
2023-05-09T00:54:27.880Z,94825.00
2023-05-09T00:55:27.929Z,94825.00
2023-05-09T00:56:27.849Z,94825.00
2023-05-09T00:57:27.845Z,94825.00
2023-05-09T00:58:27.832Z,94825.00
2023-05-09T00:59:27.845Z,94825.00
2023-05-09T01:00:27.876Z,94825.00
2023-05-09T01:01:27.955Z,94823.00
2023-05-09T01:02:28.003Z,94823.00
2023-05-09T01:03:28.155Z,94821.00
2023-05-09T01:04:28.028Z,94821.00
2023-05-09T01:05:28.073Z,94821.00
2023-05-09T01:06:28.144Z,94817.00
2023-05-09T01:07:28.176Z,94819.00
2023-05-09T01:08:28.330Z,94815.00
2023-05-09T01:09:28.242Z,94815.00
2023-05-09T01:10:28.300Z,94815.00
2023-05-09T01:11:28.356Z,94811.00
2023-05-09T01:12:28.327Z,94815.00
2023-05-09T01:13:28.406Z,94813.00
2023-05-09T01:14:28.383Z,94813.00
2023-05-09T01:15:28.454Z,94809.00
2023-05-09T01:16:28.567Z,94807.00
2023-05-09T01:17:28.500Z,94807.00
2023-05-09T01:18:28.473Z,94806.00
2023-05-09T01:19:28.546Z,94804.00
2023-05-09T01:20:28.481Z,94804.00
2023-05-09T01:21:28.473Z,94804.00
2023-05-09T01:22:28.462Z,94804.00
2023-05-09T01:23:28.475Z,94804.00
2023-05-09T01:24:28.478Z,94806.00
2023-05-09T01:25:28.494Z,94806.00
2023-05-09T01:26:28.497Z,94804.00
2023-05-09T01:27:28.486Z,94807.00
2023-05-09T01:28:28.493Z,94806.00
2023-05-09T01:29:28.474Z,94802.00
2023-05-09T01:30:28.487Z,94804.00
2023-05-09T01:31:28.553Z,94804.00
2023-05-09T01:32:28.562Z,94798.00
2023-05-09T01:33:28.493Z,94800.00
2023-05-09T01:34:28.510Z,94800.00
2023-05-09T01:35:28.660Z,94800.00
2023-05-09T01:36:28.591Z,94800.00
2023-05-09T01:37:28.595Z,94800.00
2023-05-09T01:38:28.571Z,94800.00
2023-05-09T01:39:28.580Z,94800.00
2023-05-09T01:40:28.620Z,94802.00
2023-05-09T01:41:28.645Z,94800.00
2023-05-09T01:42:28.691Z,94800.00
2023-05-09T01:43:28.760Z,94802.00
2023-05-09T01:44:28.800Z,94802.00
2023-05-09T01:45:28.838Z,94800.00
2023-05-09T01:46:28.884Z,94802.00
2023-05-09T01:47:28.885Z,94800.00
2023-05-09T01:48:28.883Z,94800.00
2023-05-09T01:49:28.863Z,94800.00
2023-05-09T01:50:28.889Z,94802.00
2023-05-09T01:51:28.957Z,94800.00
2023-05-09T01:52:28.872Z,94798.00
2023-05-09T01:53:28.907Z,94798.00
2023-05-09T01:54:28.883Z,94798.00
2023-05-09T01:55:28.893Z,94798.00
2023-05-09T01:56:28.868Z,94794.00
2023-05-09T01:57:28.865Z,94796.00
2023-05-09T01:58:28.898Z,94794.00
2023-05-09T01:59:28.868Z,94794.00
2023-05-09T02:00:28.860Z,94792.00
2023-05-09T02:01:28.881Z,94794.00
2023-05-09T02:02:28.995Z,94794.00
2023-05-09T02:03:28.908Z,94792.00
2023-05-09T02:04:28.873Z,94790.00
2023-05-09T02:05:28.892Z,94790.00
2023-05-09T02:06:28.876Z,94784.00
2023-05-09T02:07:28.955Z,94788.00
2023-05-09T02:08:28.921Z,94788.00
2023-05-09T02:09:28.981Z,94782.00
2023-05-09T02:10:29.015Z,94780.00
2023-05-09T02:11:29.109Z,94784.00
2023-05-09T02:12:29.088Z,94776.00
2023-05-09T02:13:29.116Z,94776.00
2023-05-09T02:14:29.086Z,94776.00
2023-05-09T02:15:29.161Z,94774.00
2023-05-09T02:16:29.225Z,94774.00
2023-05-09T02:17:29.225Z,94774.00
2023-05-09T02:18:29.222Z,94776.00
2023-05-09T02:19:29.222Z,94774.00
2023-05-09T02:20:29.242Z,94774.00
2023-05-09T02:21:29.353Z,94774.00
2023-05-09T02:22:29.326Z,94772.00
2023-05-09T02:23:29.396Z,94772.00
2023-05-09T02:24:29.322Z,94770.00
2023-05-09T02:25:29.324Z,94772.00
2023-05-09T02:26:29.316Z,94770.00
2023-05-09T02:27:29.317Z,94768.00
2023-05-09T02:28:29.314Z,94766.00
2023-05-09T02:29:29.311Z,94766.00
2023-05-09T02:30:29.294Z,94766.00
2023-05-09T02:31:29.438Z,94766.00
2023-05-09T02:32:29.362Z,94764.00
2023-05-09T02:33:29.296Z,94766.00
2023-05-09T02:34:29.278Z,94764.00
2023-05-09T02:35:29.321Z,94770.00
2023-05-09T02:36:29.291Z,94768.00
2023-05-09T02:37:29.315Z,94770.00
2023-05-09T02:38:29.311Z,94768.00
2023-05-09T02:39:29.402Z,94768.00
2023-05-09T02:40:29.339Z,94768.00
2023-05-09T02:41:29.330Z,94768.00
2023-05-09T02:42:29.326Z,94764.00
2023-05-09T02:43:29.342Z,94764.00
2023-05-09T02:44:29.307Z,94764.00
2023-05-09T02:45:29.328Z,94762.00
2023-05-09T02:46:29.386Z,94762.00
2023-05-09T02:47:29.369Z,94762.00
2023-05-09T02:48:29.351Z,94762.00
2023-05-09T02:49:32.366Z,94764.00
2023-05-09T02:50:29.334Z,94764.00
2023-05-09T02:51:29.330Z,94762.00
2023-05-09T02:52:29.365Z,94764.00
2023-05-09T02:53:29.320Z,94764.00
2023-05-09T02:54:29.305Z,94766.00
2023-05-09T02:55:29.380Z,94762.00
2023-05-09T02:56:29.327Z,94760.00
2023-05-09T02:57:29.278Z,94762.00
2023-05-09T02:58:29.270Z,94760.00
2023-05-09T02:59:29.334Z,94764.00
2023-05-09T03:00:29.277Z,94760.00
2023-05-09T03:01:29.293Z,94759.00
2023-05-09T03:02:29.418Z,94759.00
2023-05-09T03:03:29.439Z,94760.00
2023-05-09T03:04:29.244Z,94759.00
2023-05-09T03:05:29.229Z,94759.00
2023-05-09T03:06:29.245Z,94760.00
2023-05-09T03:07:29.217Z,94759.00
2023-05-09T03:08:29.217Z,94759.00
2023-05-09T03:09:29.196Z,94759.00
2023-05-09T03:10:29.188Z,94757.00
2023-05-09T03:11:29.265Z,94757.00
2023-05-09T03:12:29.224Z,94757.00
2023-05-09T03:13:29.169Z,94757.00
2023-05-09T03:14:29.169Z,94757.00
2023-05-09T03:15:29.158Z,94759.00
2023-05-09T03:16:29.165Z,94760.00
2023-05-09T03:17:29.175Z,94757.00
2023-05-09T03:18:29.147Z,94760.00
2023-05-09T03:19:29.145Z,94760.00
2023-05-09T03:20:29.154Z,94759.00
2023-05-09T03:21:29.127Z,94757.00
2023-05-09T03:22:29.126Z,94757.00
2023-05-09T03:23:29.101Z,94759.00
2023-05-09T03:24:29.106Z,94755.00
2023-05-09T03:25:29.110Z,94757.00
2023-05-09T03:26:29.220Z,94755.00
2023-05-09T03:27:29.294Z,94755.00
2023-05-09T03:28:29.251Z,94751.00
2023-05-09T03:29:29.073Z,94751.00
2023-05-09T03:30:29.078Z,94751.00
2023-05-09T03:31:29.081Z,94747.00
2023-05-09T03:32:29.145Z,94749.00
2023-05-09T03:33:29.061Z,94749.00
2023-05-09T03:34:29.051Z,94747.00
2023-05-09T03:35:29.045Z,94745.00
2023-05-09T03:36:29.124Z,94747.00
2023-05-09T03:37:29.017Z,94745.00
2023-05-09T03:38:29.012Z,94745.00
2023-05-09T03:39:29.018Z,94745.00
2023-05-09T03:40:28.998Z,94745.00
2023-05-09T03:41:29.002Z,94745.00
2023-05-09T03:42:29.006Z,94747.00
2023-05-09T03:43:29.089Z,94749.00
2023-05-09T03:44:28.993Z,94747.00
2023-05-09T03:45:28.984Z,94749.00
2023-05-09T03:46:29.024Z,94747.00
2023-05-09T03:47:29.016Z,94747.00
2023-05-09T03:48:28.958Z,94749.00
2023-05-09T03:49:28.954Z,94749.00
2023-05-09T03:50:28.948Z,94745.00
2023-05-09T03:51:28.923Z,94749.00
2023-05-09T03:52:28.941Z,94747.00
2023-05-09T03:53:28.914Z,94745.00
2023-05-09T03:54:28.920Z,94749.00
2023-05-09T03:55:28.932Z,94747.00
2023-05-09T03:56:28.901Z,94747.00
2023-05-09T03:57:28.901Z,94745.00
2023-05-09T03:58:28.886Z,94741.00
2023-05-09T03:59:28.958Z,94741.00
2023-05-09T04:00:28.887Z,94743.00
2023-05-09T04:01:28.891Z,94743.00
2023-05-09T04:02:29.026Z,94743.00
2023-05-09T04:03:28.921Z,94743.00
2023-05-09T04:04:28.843Z,94745.00
2023-05-09T04:05:28.830Z,94745.00
2023-05-09T04:06:28.835Z,94749.00
2023-05-09T04:07:28.833Z,94747.00
2023-05-09T04:08:28.835Z,94747.00
2023-05-09T04:09:28.843Z,94747.00
2023-05-09T04:10:28.824Z,94747.00
2023-05-09T04:11:28.829Z,94747.00
2023-05-09T04:12:28.863Z,94747.00
2023-05-09T04:13:28.900Z,94745.00
2023-05-09T04:14:28.869Z,94745.00
2023-05-09T04:15:28.903Z,94745.00
2023-05-09T04:16:28.933Z,94745.00
2023-05-09T04:17:28.935Z,94745.00
2023-05-09T04:18:28.914Z,94745.00
2023-05-09T04:19:28.938Z,94745.00
2023-05-09T04:20:28.942Z,94747.00
2023-05-09T04:21:28.956Z,94745.00
2023-05-09T04:22:28.958Z,94745.00
2023-05-09T04:23:28.968Z,94747.00
2023-05-09T04:24:28.989Z,94749.00
2023-05-09T04:25:28.963Z,94749.00
2023-05-09T04:26:28.968Z,94747.00
2023-05-09T04:27:29.019Z,94749.00
2023-05-09T04:28:29.061Z,94751.00
2023-05-09T04:29:29.076Z,94751.00
2023-05-09T04:30:29.071Z,94751.00
2023-05-09T04:31:29.386Z,94751.00
2023-05-09T04:32:29.124Z,94751.00
2023-05-09T04:33:29.143Z,94751.00
2023-05-09T04:34:29.119Z,94751.00
2023-05-09T04:35:29.156Z,94747.00
2023-05-09T04:36:29.145Z,94749.00
2023-05-09T04:37:29.170Z,94747.00
2023-05-09T04:38:29.393Z,94745.00
2023-05-09T04:39:29.187Z,94751.00
2023-05-09T04:40:29.214Z,94749.00
2023-05-09T04:41:29.210Z,94751.00
2023-05-09T04:42:29.227Z,94749.00
2023-05-09T04:43:29.262Z,94749.00
2023-05-09T04:44:29.261Z,94747.00
2023-05-09T04:45:29.322Z,94749.00
2023-05-09T04:46:29.408Z,94747.00
2023-05-09T04:47:29.563Z,94749.00
2023-05-09T04:48:29.509Z,94749.00
2023-05-09T04:49:29.512Z,94749.00
2023-05-09T04:50:29.562Z,94749.00
2023-05-09T04:51:29.589Z,94749.00
2023-05-09T04:52:29.629Z,94749.00
2023-05-09T04:53:29.659Z,94751.00
2023-05-09T04:54:29.649Z,94751.00
2023-05-09T04:55:29.649Z,94753.00
2023-05-09T04:56:29.679Z,94753.00
2023-05-09T04:57:29.669Z,94751.00
2023-05-09T04:58:29.686Z,94755.00
2023-05-09T04:59:29.698Z,94751.00
2023-05-09T05:00:29.707Z,94753.00
2023-05-09T05:01:29.760Z,94751.00
2023-05-09T05:02:29.763Z,94745.00
2023-05-09T05:03:29.837Z,94747.00
2023-05-09T05:04:29.808Z,94743.00
2023-05-09T05:05:30.122Z,94741.00
2023-05-09T05:06:29.808Z,94745.00
2023-05-09T05:07:29.814Z,94745.00
2023-05-09T05:08:29.824Z,94745.00
2023-05-09T05:09:29.911Z,94747.00
2023-05-09T05:10:29.882Z,94745.00
2023-05-09T05:11:29.911Z,94745.00
2023-05-09T05:12:29.915Z,94743.00
2023-05-09T05:13:29.930Z,94745.00
2023-05-09T05:14:29.920Z,94745.00
2023-05-09T05:15:29.929Z,94745.00
2023-05-09T05:16:30.002Z,94745.00
2023-05-09T05:17:30.053Z,94749.00
2023-05-09T05:18:30.039Z,94745.00
2023-05-09T05:19:30.204Z,94747.00
2023-05-09T05:20:30.156Z,94747.00
2023-05-09T05:21:30.214Z,94747.00
2023-05-09T05:22:31.645Z,94745.00
2023-05-09T05:23:30.762Z,94747.00
2023-05-09T05:24:30.340Z,94745.00
2023-05-09T05:25:30.353Z,94743.00
2023-05-09T05:26:30.326Z,94745.00
2023-05-09T05:27:30.347Z,94741.00
2023-05-09T05:28:30.774Z,94743.00
2023-05-09T05:29:30.375Z,94745.00
2023-05-09T05:30:31.580Z,94749.00
2023-05-09T05:31:30.418Z,94749.00
2023-05-09T05:32:30.405Z,94749.00
2023-05-09T05:33:30.765Z,94751.00
2023-05-09T05:34:30.479Z,94753.00
2023-05-09T05:35:30.599Z,94751.00
2023-05-09T05:36:30.563Z,94751.00
2023-05-09T05:37:30.759Z,94751.00
2023-05-09T05:38:30.632Z,94753.00
2023-05-09T05:39:30.685Z,94747.00
2023-05-09T05:40:30.734Z,94751.00
2023-05-09T05:41:30.816Z,94749.00
2023-05-09T05:42:30.869Z,94751.00
2023-05-09T05:43:30.923Z,94749.00
2023-05-09T05:44:31.002Z,94751.00
2023-05-09T05:45:31.098Z,94751.00
2023-05-09T05:46:31.060Z,94749.00
2023-05-09T05:47:31.174Z,94753.00
2023-05-09T05:48:31.157Z,94755.00
2023-05-09T05:49:31.224Z,94759.00
2023-05-09T05:50:31.251Z,94757.00
2023-05-09T05:51:31.342Z,94757.00
2023-05-09T05:52:31.327Z,94755.00
2023-05-09T05:53:32.711Z,94757.00
2023-05-09T05:54:31.367Z,94751.00
2023-05-09T05:55:31.390Z,94751.00
2023-05-09T05:56:31.419Z,94753.00
2023-05-09T05:57:31.489Z,94749.00
2023-05-09T05:58:31.528Z,94749.00
2023-05-09T05:59:31.542Z,94745.00
2023-05-09T06:00:31.660Z,94745.00
2023-05-09T06:01:31.698Z,94743.00
2023-05-09T06:02:31.708Z,94745.00
2023-05-09T06:03:31.822Z,94745.00
2023-05-09T06:04:31.789Z,94745.00
2023-05-09T06:05:31.876Z,94743.00
2023-05-09T06:06:31.830Z,94743.00
2023-05-09T06:07:31.903Z,94745.00
2023-05-09T06:08:31.830Z,94747.00
2023-05-09T06:09:31.818Z,94745.00
2023-05-09T06:10:31.842Z,94747.00
2023-05-09T06:11:31.840Z,94747.00
2023-05-09T06:12:31.882Z,94749.00
2023-05-09T06:13:32.270Z,94749.00
2023-05-09T06:14:32.289Z,94747.00
2023-05-09T06:15:31.916Z,94747.00
2023-05-09T06:16:31.895Z,94749.00
2023-05-09T06:17:31.904Z,94749.00
2023-05-09T06:18:31.886Z,94749.00
2023-05-09T06:19:31.907Z,94749.00
2023-05-09T06:20:31.881Z,94751.00
2023-05-09T06:21:31.849Z,94751.00
2023-05-09T06:22:31.847Z,94753.00
2023-05-09T06:23:31.965Z,94753.00
2023-05-09T06:24:35.792Z,94753.00
2023-05-09T06:25:31.889Z,94753.00
2023-05-09T06:26:31.887Z,94751.00
2023-05-09T06:27:31.886Z,94749.00
2023-05-09T06:28:31.855Z,94747.00
2023-05-09T06:29:31.881Z,94743.00
2023-05-09T06:30:31.871Z,94745.00
2023-05-09T06:31:31.848Z,94741.00
2023-05-09T06:32:31.896Z,94739.00
2023-05-09T06:33:31.837Z,94739.00
2023-05-09T06:34:32.287Z,94737.00
2023-05-09T06:35:31.893Z,94737.00
2023-05-09T06:36:31.810Z,94735.00
2023-05-09T06:37:31.801Z,94735.00
2023-05-09T06:38:31.931Z,94735.00
2023-05-09T06:39:31.867Z,94735.00
2023-05-09T06:40:31.771Z,94733.00
2023-05-09T06:41:31.794Z,94729.00
2023-05-09T06:42:31.762Z,94727.00
2023-05-09T06:43:31.773Z,94729.00
2023-05-09T06:44:31.765Z,94723.00
2023-05-09T06:45:31.773Z,94723.00
2023-05-09T06:46:31.776Z,94721.00
2023-05-09T06:47:31.987Z,94721.00
2023-05-09T06:48:32.452Z,94721.00
2023-05-09T06:49:31.867Z,94721.00
2023-05-09T06:50:32.919Z,94719.00
2023-05-09T06:51:31.949Z,94719.00
2023-05-09T06:52:32.046Z,94719.00
2023-05-09T06:53:32.340Z,94717.00
2023-05-09T06:54:32.147Z,94721.00
2023-05-09T06:55:32.290Z,94719.00
2023-05-09T06:56:32.269Z,94719.00
2023-05-09T06:57:32.456Z,94719.00
2023-05-09T06:58:32.865Z,94719.00
2023-05-09T06:59:32.793Z,94715.00
2023-05-09T07:00:32.409Z,94715.00
2023-05-09T07:01:32.593Z,94719.00
2023-05-09T07:02:32.524Z,94717.00
2023-05-09T07:03:32.503Z,94715.00
2023-05-09T07:04:32.566Z,94715.00
2023-05-09T07:05:32.756Z,94715.00
2023-05-09T07:06:32.630Z,94713.00
2023-05-09T07:07:32.626Z,94713.00
2023-05-09T07:08:32.692Z,94713.00
2023-05-09T07:09:32.641Z,94717.00
2023-05-09T07:10:32.710Z,94713.00
2023-05-09T07:11:32.767Z,94713.00
2023-05-09T07:12:32.713Z,94712.00
2023-05-09T07:13:32.717Z,94710.00
2023-05-09T07:14:32.825Z,94708.00
2023-05-09T07:15:41.289Z,94706.00
2023-05-09T07:16:35.808Z,94704.00
2023-05-09T07:17:32.877Z,94704.00
2023-05-09T07:18:32.712Z,94704.00
2023-05-09T07:19:32.842Z,94706.00
2023-05-09T07:20:32.722Z,94704.00
2023-05-09T07:21:32.686Z,94704.00
2023-05-09T07:22:34.113Z,94700.00
2023-05-09T07:23:32.654Z,94702.00
2023-05-09T07:24:32.876Z,94702.00
2023-05-09T07:25:32.695Z,94698.00
2023-05-09T07:26:32.660Z,94694.00
2023-05-09T07:27:32.737Z,94694.00
2023-05-09T07:28:32.689Z,94694.00
2023-05-09T07:29:32.630Z,94694.00
2023-05-09T07:30:32.629Z,94694.00
2023-05-09T07:31:33.548Z,94694.00
2023-05-09T07:32:32.834Z,94690.00
2023-05-09T07:33:32.818Z,94690.00
2023-05-09T07:34:32.839Z,94690.00
2023-05-09T07:35:32.871Z,94688.00
2023-05-09T07:36:34.746Z,94692.00
2023-05-09T07:37:33.018Z,94688.00
2023-05-09T07:38:33.297Z,94690.00
2023-05-09T07:39:33.330Z,94692.00
2023-05-09T07:40:33.209Z,94688.00
2023-05-09T07:41:33.260Z,94684.00
2023-05-09T07:42:33.267Z,94682.00
2023-05-09T07:43:33.268Z,94680.00
2023-05-09T07:44:33.262Z,94682.00
2023-05-09T07:45:33.322Z,94682.00
2023-05-09T07:46:33.319Z,94678.00
2023-05-09T07:47:33.352Z,94674.00
2023-05-09T07:48:33.357Z,94674.00
2023-05-09T07:49:33.419Z,94672.00
2023-05-09T07:50:33.492Z,94670.00
2023-05-09T07:51:33.528Z,94670.00
2023-05-09T07:52:33.602Z,94666.00
2023-05-09T07:53:33.637Z,94666.00
2023-05-09T07:54:33.797Z,94666.00
2023-05-09T07:55:33.748Z,94662.00
2023-05-09T07:56:33.961Z,94660.00
2023-05-09T07:57:33.873Z,94657.00
2023-05-09T07:58:33.946Z,94655.00
2023-05-09T07:59:34.414Z,94655.00
2023-05-09T08:00:34.072Z,94651.00
2023-05-09T08:01:34.133Z,94651.00
2023-05-09T08:02:34.276Z,94649.00
2023-05-09T08:03:34.283Z,94649.00
2023-05-09T08:04:34.373Z,94649.00
2023-05-09T08:05:34.353Z,94645.00
2023-05-09T08:06:34.410Z,94649.00
2023-05-09T08:07:34.472Z,94649.00
2023-05-09T08:08:34.502Z,94651.00
2023-05-09T08:09:34.536Z,94643.00
2023-05-09T08:10:34.582Z,94643.00
2023-05-09T08:11:34.655Z,94635.00
2023-05-09T08:12:34.688Z,94633.00
2023-05-09T08:13:34.745Z,94631.00
2023-05-09T08:14:34.754Z,94627.00
2023-05-09T08:15:34.895Z,94629.00
2023-05-09T08:16:34.818Z,94623.00
2023-05-09T08:17:34.838Z,94621.00
2023-05-09T08:18:34.820Z,94623.00
2023-05-09T08:19:34.838Z,94621.00
2023-05-09T08:20:34.849Z,94621.00
2023-05-09T08:21:34.871Z,94621.00
2023-05-09T08:22:34.933Z,94617.00
2023-05-09T08:23:35.312Z,94615.00
2023-05-09T08:24:34.926Z,94615.00
2023-05-09T08:25:34.964Z,94615.00
2023-05-09T08:26:35.042Z,94615.00
2023-05-09T08:27:35.014Z,94608.00
2023-05-09T08:28:35.065Z,94606.00
2023-05-09T08:29:35.067Z,94602.00
2023-05-09T08:30:35.051Z,94602.00
2023-05-09T08:31:35.293Z,94600.00
2023-05-09T08:32:35.257Z,94596.00
2023-05-09T08:33:35.293Z,94596.00
2023-05-09T08:34:35.290Z,94596.00
2023-05-09T08:35:35.308Z,94592.00
2023-05-09T08:36:35.343Z,94590.00
2023-05-09T08:37:35.349Z,94592.00
2023-05-09T08:38:35.339Z,94590.00
2023-05-09T08:39:35.850Z,94590.00
2023-05-09T08:40:35.345Z,94590.00
2023-05-09T08:41:35.323Z,94588.00
2023-05-09T08:42:35.389Z,94588.00
2023-05-09T08:43:35.826Z,94588.00
2023-05-09T08:44:35.477Z,94588.00
2023-05-09T08:45:35.544Z,94588.00
2023-05-09T08:46:35.632Z,94590.00
2023-05-09T08:47:35.747Z,94590.00
2023-05-09T08:48:36.129Z,94586.00
2023-05-09T08:49:35.714Z,94588.00
2023-05-09T08:50:35.738Z,94586.00
2023-05-09T08:51:35.840Z,94578.00
2023-05-09T08:52:35.821Z,94576.00
2023-05-09T08:53:36.361Z,94572.00
2023-05-09T08:54:35.910Z,94572.00
2023-05-09T08:55:35.920Z,94568.00
2023-05-09T08:56:35.949Z,94568.00
2023-05-09T08:57:35.988Z,94566.00
2023-05-09T08:58:35.981Z,94568.00
2023-05-09T08:59:36.182Z,94563.00
2023-05-09T09:00:36.060Z,94561.00
2023-05-09T09:01:36.152Z,94565.00
2023-05-09T09:02:36.161Z,94557.00
2023-05-09T09:03:36.275Z,94557.00
2023-05-09T09:04:36.357Z,94553.00
2023-05-09T09:06:36.249Z,94549.00
2023-05-09T09:07:36.259Z,94547.00
2023-05-09T09:08:36.244Z,94553.00
2023-05-09T09:09:36.244Z,94545.00
2023-05-09T09:10:36.215Z,94547.00
2023-05-09T09:11:36.294Z,94541.00
2023-05-09T09:12:36.235Z,94541.00
2023-05-09T09:13:36.280Z,94539.00
2023-05-09T09:14:36.340Z,94537.00
2023-05-09T09:15:36.194Z,94537.00
2023-05-09T09:16:36.258Z,94539.00
2023-05-09T09:17:36.230Z,94533.00
2023-05-09T09:18:36.176Z,94533.00
2023-05-09T09:19:36.242Z,94527.00
2023-05-09T09:20:36.182Z,94525.00
2023-05-09T09:21:36.145Z,94529.00
2023-05-09T09:22:36.137Z,94527.00
2023-05-09T09:23:36.152Z,94525.00
2023-05-09T09:24:36.349Z,94519.00
2023-05-09T09:25:36.145Z,94517.00
2023-05-09T09:26:36.117Z,94513.00
2023-05-09T09:27:36.106Z,94511.00
2023-05-09T09:28:36.116Z,94508.00
2023-05-09T09:29:36.367Z,94508.00
2023-05-09T09:30:36.108Z,94510.00
2023-05-09T09:31:36.150Z,94506.00
2023-05-09T09:32:36.128Z,94502.00
2023-05-09T09:33:36.082Z,94502.00
2023-05-09T09:34:36.351Z,94500.00
2023-05-09T09:35:36.146Z,94498.00
2023-05-09T09:36:36.096Z,94494.00
2023-05-09T09:37:36.049Z,94494.00
2023-05-09T09:38:36.049Z,94490.00
2023-05-09T09:39:36.347Z,94492.00
2023-05-09T09:40:36.032Z,94486.00
2023-05-09T09:41:36.038Z,94480.00
2023-05-09T09:42:36.001Z,94482.00
2023-05-09T09:43:36.003Z,94480.00
2023-05-09T09:44:36.357Z,94480.00
2023-05-09T09:45:36.047Z,94476.00
2023-05-09T09:46:36.090Z,94470.00
2023-05-09T09:47:36.005Z,94466.00
2023-05-09T09:48:36.395Z,94466.00
2023-05-09T09:49:36.348Z,94464.00
2023-05-09T09:50:35.964Z,94461.00
2023-05-09T09:51:36.040Z,94461.00
2023-05-09T09:52:35.933Z,94459.00
2023-05-09T09:53:35.930Z,94459.00
2023-05-09T09:54:36.448Z,94455.00
2023-05-09T09:55:35.919Z,94455.00
2023-05-09T09:56:35.928Z,94455.00
2023-05-09T09:57:35.918Z,94451.00
2023-05-09T09:58:35.891Z,94447.00
2023-05-09T09:59:35.909Z,94445.00
2023-05-09T10:00:35.885Z,94443.00
2023-05-09T10:01:35.941Z,94445.00
2023-05-09T10:02:35.906Z,94441.00
2023-05-09T10:03:35.873Z,94441.00
2023-05-09T10:04:35.885Z,94439.00
2023-05-09T10:05:35.863Z,94439.00
2023-05-09T10:06:35.839Z,94435.00
2023-05-09T10:07:35.925Z,94433.00
2023-05-09T10:08:35.851Z,94437.00
2023-05-09T10:09:35.856Z,94431.00
2023-05-09T10:10:35.812Z,94431.00
2023-05-09T10:11:35.807Z,94427.00
2023-05-09T10:12:35.826Z,94427.00
2023-05-09T10:13:35.817Z,94421.00
2023-05-09T10:14:35.900Z,94421.00
2023-05-09T10:15:49.280Z,94419.00
2023-05-09T10:16:43.916Z,94414.00
2023-05-09T10:17:36.992Z,94404.00
2023-05-09T10:18:36.080Z,94406.00
2023-05-09T10:19:35.876Z,94402.00
2023-05-09T10:20:35.857Z,94398.00
2023-05-09T10:21:36.761Z,94396.00
2023-05-09T10:22:35.834Z,94394.00
2023-05-09T10:23:35.913Z,94396.00
2023-05-09T10:24:35.910Z,94392.00
2023-05-09T10:25:35.810Z,94390.00
2023-05-09T10:26:35.815Z,94392.00
2023-05-09T10:27:35.787Z,94388.00
2023-05-09T10:28:35.816Z,94386.00
2023-05-09T10:29:35.848Z,94388.00
2023-05-09T10:30:35.931Z,94386.00
2023-05-09T10:31:35.963Z,94378.00
2023-05-09T10:32:35.995Z,94376.00
2023-05-09T10:33:36.004Z,94371.00
2023-05-09T10:34:36.378Z,94372.00
2023-05-09T10:35:36.071Z,94369.00
2023-05-09T10:36:36.099Z,94365.00
2023-05-09T10:37:36.148Z,94363.00
2023-05-09T10:38:36.216Z,94363.00
2023-05-09T10:39:36.334Z,94357.00
2023-05-09T10:40:36.317Z,94355.00
2023-05-09T10:41:36.335Z,94355.00
2023-05-09T10:42:36.349Z,94359.00
2023-05-09T10:43:36.833Z,94353.00
2023-05-09T10:44:36.870Z,94347.00
2023-05-09T10:45:36.398Z,94345.00
2023-05-09T10:46:36.412Z,94343.00
2023-05-09T10:47:36.408Z,94339.00
2023-05-09T10:48:36.451Z,94341.00
2023-05-09T10:49:37.238Z,94339.00
2023-05-09T10:50:36.434Z,94333.00
2023-05-09T10:51:36.465Z,94333.00
2023-05-09T10:52:36.502Z,94327.00
2023-05-09T10:53:36.488Z,94323.00
2023-05-09T10:54:36.896Z,94320.00
2023-05-09T10:55:36.589Z,94321.00
2023-05-09T10:56:36.532Z,94320.00
2023-05-09T10:57:36.522Z,94318.00
2023-05-09T10:58:36.590Z,94316.00
2023-05-09T10:59:36.884Z,94318.00
2023-05-09T11:00:36.572Z,94312.00
2023-05-09T11:01:36.699Z,94312.00
2023-05-09T11:02:36.724Z,94312.00
2023-05-09T11:03:36.814Z,94306.00
2023-05-09T11:04:36.881Z,94308.00
2023-05-09T11:05:36.814Z,94304.00
2023-05-09T11:06:36.838Z,94302.00
2023-05-09T11:07:36.879Z,94298.00
2023-05-09T11:08:36.914Z,94300.00
2023-05-09T11:09:36.933Z,94296.00
2023-05-09T11:10:36.963Z,94294.00
2023-05-09T11:11:37.060Z,94294.00
2023-05-09T11:12:37.060Z,94290.00
2023-05-09T11:13:37.084Z,94288.00
2023-05-09T11:14:37.408Z,94288.00
2023-05-09T11:15:37.195Z,94286.00
2023-05-09T11:16:37.246Z,94288.00
2023-05-09T11:17:37.271Z,94286.00
2023-05-09T11:18:37.308Z,94286.00
2023-05-09T11:19:37.400Z,94278.00
2023-05-09T11:20:37.399Z,94276.00
2023-05-09T11:21:37.432Z,94272.00
2023-05-09T11:22:37.477Z,94269.00
2023-05-09T11:23:37.534Z,94269.00
2023-05-09T11:24:37.566Z,94263.00
2023-05-09T11:25:37.607Z,94263.00
2023-05-09T11:26:37.620Z,94259.00
2023-05-09T11:27:37.747Z,94259.00
2023-05-09T11:28:37.709Z,94257.00
2023-05-09T11:29:37.767Z,94259.00
2023-05-09T11:30:37.808Z,94255.00
2023-05-09T11:31:37.869Z,94255.00
2023-05-09T11:32:37.893Z,94255.00
2023-05-09T11:33:37.927Z,94251.00
2023-05-09T11:34:37.947Z,94251.00
2023-05-09T11:35:37.993Z,94249.00
2023-05-09T11:36:38.041Z,94247.00
2023-05-09T11:37:38.092Z,94247.00
2023-05-09T11:38:38.118Z,94245.00
2023-05-09T11:39:38.178Z,94241.00
2023-05-09T11:40:38.229Z,94241.00
2023-05-09T11:41:38.300Z,94239.00
2023-05-09T11:42:38.339Z,94239.00
2023-05-09T11:43:38.432Z,94235.00
2023-05-09T11:44:38.353Z,94235.00
2023-05-09T11:45:38.407Z,94233.00